Time;durP1;ratioP1;P1;durP2;ratioP2;P2;SDS_P1;SDS_P2;PMS_P1;PMS_P2;Temp;Humidity;BMP_temperature;BMP_pressure;BME280_temperature;BME280_humidity;BME280_pressure;Samples;Min_cycle;Max_cycle;Signal;HPM_P1;HPM_P2
2023/04/01 00:00:17;;;;;;;2.70;2.50;;;10.10;99.90;;;;;;5016649;28;20211;-75
2023/04/01 00:02:43;;;;;;;3.33;1.70;;;10.10;99.90;;;;;;5019095;28;20294;-75
2023/04/01 00:05:10;;;;;;;1.87;1.63;;;10.10;99.90;;;;;;5011743;28;20286;-75
2023/04/01 00:07:39;;;;;;;2.53;1.80;;;10.10;99.90;;;;;;5015502;28;20303;-75
2023/04/01 00:10:07;;;;;;;1.80;1.70;;;10.10;99.90;;;;;;5016834;28;20230;-75
2023/04/01 00:12:33;;;;;;;2.33;1.87;;;10.10;99.90;;;;;;5019273;28;20209;-75
2023/04/01 00:14:59;;;;;;;2.37;1.57;;;10.00;99.90;;;;;;5034144;28;20201;-75
2023/04/01 00:17:24;;;;;;;5.53;1.67;;;10.00;99.90;;;;;;5019628;28;20266;-75
2023/04/01 00:19:50;;;;;;;2.17;1.37;;;10.00;99.90;;;;;;5017327;28;20198;-74
2023/04/01 00:22:16;;;;;;;2.27;1.50;;;10.10;99.90;;;;;;5018692;28;20266;-75
2023/04/01 00:24:41;;;;;;;2.90;1.67;;;10.10;99.90;;;;;;5018880;28;20672;-75
2023/04/01 00:27:07;;;;;;;2.67;1.83;;;10.10;99.90;;;;;;5018992;28;20247;-75
2023/04/01 00:29:33;;;;;;;2.77;1.33;;;10.10;99.90;;;;;;5019509;28;20208;-76
2023/04/01 00:31:59;;;;;;;3.03;1.77;;;10.00;99.90;;;;;;5019886;28;20578;-76
2023/04/01 00:34:25;;;;;;;1.87;1.57;;;10.00;99.90;;;;;;5017276;28;20203;-74
2023/04/01 00:36:52;;;;;;;2.77;1.90;;;10.00;99.90;;;;;;5013889;28;20251;-75
2023/04/01 00:39:17;;;;;;;4.63;2.57;;;10.10;99.90;;;;;;5016979;28;20220;-75
2023/04/01 00:41:43;;;;;;;6.70;1.97;;;10.10;99.90;;;;;;5015637;28;20205;-74
2023/04/01 00:44:22;;;;;;;2.40;1.63;;;10.10;99.90;;;;;;5018628;28;20701;-74
2023/04/01 00:46:47;;;;;;;2.40;1.60;;;10.10;99.90;;;;;;5019519;28;20694;-75
2023/04/01 00:49:14;;;;;;;2.90;1.87;;;10.10;99.90;;;;;;5022046;28;20316;-75
2023/04/01 00:51:41;;;;;;;2.17;1.77;;;10.10;99.90;;;;;;5023072;28;20214;-75
2023/04/01 00:54:09;;;;;;;2.67;1.80;;;10.10;99.90;;;;;;5023365;28;20700;-73
2023/04/01 00:56:41;;;;;;;2.90;1.73;;;10.10;99.90;;;;;;5017141;28;20209;-73
2023/04/01 00:59:11;;;;;;;3.00;1.90;;;10.10;99.90;;;;;;5018393;28;20216;-74
2023/04/01 01:01:37;;;;;;;2.10;1.93;;;10.10;99.90;;;;;;5018345;28;20209;-74
2023/04/01 01:04:03;;;;;;;2.10;1.70;;;10.10;99.90;;;;;;5016233;28;20203;-75
2023/04/01 01:06:58;;;;;;;2.77;1.77;;;10.10;99.90;;;;;;5018035;28;20303;-76
2023/04/01 01:09:54;;;;;;;3.47;2.63;;;10.10;99.90;;;;;;4997660;28;20299;-74
2023/04/01 01:12:34;;;;;;;6.27;2.03;;;10.10;99.90;;;;;;5014142;28;20226;-74
2023/04/01 01:15:05;;;;;;;4.50;2.23;;;10.10;99.90;;;;;;5018012;28;20196;-76
2023/04/01 01:17:46;;;;;;;3.07;1.50;;;10.10;99.90;;;;;;5013338;28;20213;-75
2023/04/01 01:20:48;;;;;;;2.50;1.67;;;10.10;99.90;;;;;;5017467;28;21041;-76
2023/04/01 01:23:52;;;;;;;2.80;1.90;;;10.10;99.90;;;;;;5009339;28;20240;-75
2023/04/01 01:26:39;;;;;;;2.00;1.80;;;10.00;99.90;;;;;;5017954;28;20220;-75
2023/04/01 01:29:12;;;;;;;2.53;1.80;;;10.00;99.90;;;;;;5018736;28;20214;-73
2023/04/01 01:31:56;;;;;;;5.10;3.23;;;10.00;99.90;;;;;;5017897;28;20219;-74
2023/04/01 01:34:52;;;;;;;3.47;1.90;;;10.10;99.90;;;;;;5014285;28;20541;-73
2023/04/01 01:37:21;;;;;;;2.37;1.87;;;10.10;99.90;;;;;;5015629;28;20217;-76
2023/04/01 01:39:54;;;;;;;3.63;2.50;;;10.10;99.90;;;;;;5020803;28;20281;-75
2023/04/01 01:42:22;;;;;;;5.97;1.87;;;10.10;99.90;;;;;;5016507;28;20212;-75
2023/04/01 01:44:50;;;;;;;4.87;2.30;;;10.10;99.90;;;;;;5022280;28;20234;-75
2023/04/01 01:47:18;;;;;;;3.93;2.23;;;10.10;99.90;;;;;;5025365;28;20264;-76
2023/04/01 01:49:45;;;;;;;1.73;1.57;;;10.10;99.90;;;;;;5015902;28;20204;-75
2023/04/01 01:52:12;;;;;;;3.07;1.67;;;10.10;99.90;;;;;;5021910;28;20197;-75
2023/04/01 01:54:47;;;;;;;3.87;2.37;;;10.10;99.90;;;;;;5008217;28;20268;-75
2023/04/01 01:57:14;;;;;;;1.40;1.30;;;10.10;99.90;;;;;;5013040;28;20704;-74
2023/04/01 01:59:42;;;;;;;2.70;1.80;;;10.10;99.90;;;;;;5017663;28;20283;-75
2023/04/01 02:02:10;;;;;;;4.83;1.37;;;10.00;99.90;;;;;;5012845;28;20201;-75
2023/04/01 02:04:39;;;;;;;2.77;1.40;;;10.00;99.90;;;;;;5016990;28;20298;-75
2023/04/01 02:07:10;;;;;;;1.60;1.40;;;10.00;99.90;;;;;;5017286;28;20212;-76
2023/04/01 02:09:36;;;;;;;3.93;1.90;;;10.00;99.90;;;;;;5017391;28;20208;-75
2023/04/01 02:12:05;;;;;;;1.73;1.63;;;10.00;99.90;;;;;;5012691;28;20207;-75
2023/04/01 02:14:41;;;;;;;4.27;2.40;;;10.00;99.90;;;;;;5017027;28;20210;-74
2023/04/01 02:17:15;;;;;;;3.90;1.63;;;10.10;99.90;;;;;;5017150;28;20209;-75
2023/04/01 02:19:46;;;;;;;3.23;1.97;;;10.10;99.90;;;;;;5014474;28;20216;-74
2023/04/01 02:22:17;;;;;;;4.07;1.80;;;10.10;99.90;;;;;;5015565;28;20205;-75
2023/04/01 02:24:45;;;;;;;1.93;1.53;;;10.10;99.90;;;;;;5012430;28;20211;-75
2023/04/01 02:27:11;;;;;;;3.13;1.40;;;10.00;99.90;;;;;;5016553;28;20217;-75
2023/04/01 02:29:37;;;;;;;3.23;2.00;;;10.00;99.90;;;;;;5017166;28;20205;-75
2023/04/01 02:32:04;;;;;;;3.03;1.87;;;9.90;99.90;;;;;;5017836;28;20248;-74
2023/04/01 02:34:30;;;;;;;2.77;1.57;;;9.80;99.90;;;;;;5016131;28;20200;-74
2023/04/01 02:36:57;;;;;;;2.20;1.33;;;9.80;99.90;;;;;;5025258;28;20202;-74
2023/04/01 02:39:22;;;;;;;5.77;4.53;;;9.80;99.90;;;;;;5015626;28;20271;-74
2023/04/01 02:41:48;;;;;;;9.07;5.60;;;9.80;99.90;;;;;;5016663;28;20205;-74
2023/04/01 02:44:15;;;;;;;4.70;4.20;;;9.80;99.90;;;;;;5017582;28;20217;-74
2023/04/01 02:46:41;;;;;;;5.90;4.17;;;9.80;99.90;;;;;;5014359;28;20234;-74
2023/04/01 02:49:06;;;;;;;4.97;3.67;;;9.90;99.90;;;;;;5017543;28;20197;-75
2023/04/01 02:51:32;;;;;;;5.07;3.07;;;9.90;99.90;;;;;;5020340;28;20587;-74
2023/04/01 02:53:58;;;;;;;4.37;2.63;;;9.90;99.90;;;;;;5016850;28;20738;-74
2023/04/01 02:56:23;;;;;;;4.23;3.27;;;9.90;99.90;;;;;;5019778;28;20204;-75
2023/04/01 02:58:50;;;;;;;3.67;2.90;;;9.90;99.90;;;;;;5017497;28;20310;-74
2023/04/01 03:01:16;;;;;;;5.10;2.83;;;9.90;99.90;;;;;;5016698;28;20570;-74
2023/04/01 03:03:41;;;;;;;4.80;2.10;;;10.00;99.90;;;;;;5016690;28;20214;-82
2023/04/01 03:06:12;;;;;;;5.20;2.10;;;10.00;99.90;;;;;;5018817;28;20288;-74
2023/04/01 03:08:38;;;;;;;5.47;2.30;;;10.00;99.90;;;;;;5016322;28;20204;-74
2023/04/01 03:11:05;;;;;;;4.20;3.10;;;10.00;99.90;;;;;;5014240;28;20200;-76
2023/04/01 03:13:30;;;;;;;4.63;1.80;;;9.90;99.90;;;;;;5016126;28;20214;-75
2023/04/01 03:15:56;;;;;;;4.97;2.50;;;10.00;99.90;;;;;;5015445;28;20730;-76
2023/04/01 03:18:21;;;;;;;2.77;1.90;;;10.00;99.90;;;;;;5018441;28;20776;-74
2023/04/01 03:20:47;;;;;;;4.27;2.23;;;10.10;99.90;;;;;;5016701;28;20200;-76
2023/04/01 03:23:12;;;;;;;5.23;2.47;;;10.10;99.90;;;;;;5015396;28;20342;-74
2023/04/01 03:25:38;;;;;;;3.37;1.90;;;10.10;99.90;;;;;;5016365;28;20688;-76
2023/04/01 03:28:03;;;;;;;3.80;1.83;;;10.10;99.90;;;;;;5018807;28;20603;-74
2023/04/01 03:30:32;;;;;;;3.10;2.10;;;10.10;99.90;;;;;;5018595;28;20206;-74
2023/04/01 03:33:00;;;;;;;4.13;2.20;;;10.10;99.90;;;;;;5016513;28;20191;-74
2023/04/01 03:35:26;;;;;;;3.57;2.10;;;10.10;99.90;;;;;;5016191;28;20210;-74
2023/04/01 03:37:52;;;;;;;3.73;2.50;;;10.10;99.90;;;;;;5024936;28;20203;-74
2023/04/01 03:40:18;;;;;;;2.53;1.33;;;10.10;99.90;;;;;;5015932;28;20216;-74
2023/04/01 03:42:43;;;;;;;3.90;2.10;;;10.10;99.90;;;;;;5016318;28;20309;-74
2023/04/01 03:45:11;;;;;;;5.70;2.20;;;10.10;99.90;;;;;;5018090;28;20231;-74
2023/04/01 03:47:38;;;;;;;2.73;1.53;;;10.10;99.90;;;;;;5015541;28;20577;-74
2023/04/01 03:50:04;;;;;;;4.37;1.90;;;10.10;99.90;;;;;;5021642;28;20201;-74
2023/04/01 03:52:30;;;;;;;3.97;1.93;;;10.10;99.90;;;;;;5022724;28;20607;-74
2023/04/01 03:54:56;;;;;;;2.20;1.83;;;10.10;99.90;;;;;;5019822;28;20286;-74
2023/04/01 03:57:21;;;;;;;4.73;2.07;;;10.10;99.90;;;;;;5022397;28;20311;-73
2023/04/01 03:59:47;;;;;;;3.67;2.30;;;10.10;99.90;;;;;;5019896;28;20206;-74
2023/04/01 04:02:12;;;;;;;5.60;1.90;;;10.10;99.90;;;;;;5018275;28;20197;-75
2023/04/01 04:04:38;;;;;;;3.90;1.70;;;10.10;99.90;;;;;;5019738;28;20205;-75
2023/04/01 04:07:03;;;;;;;3.50;1.80;;;10.10;99.90;;;;;;5024397;28;20567;-75
2023/04/01 04:09:31;;;;;;;5.87;2.30;;;10.10;99.90;;;;;;5024443;28;20682;-75
2023/04/01 04:11:56;;;;;;;3.97;1.83;;;10.10;99.90;;;;;;5015021;28;20202;-74
2023/04/01 04:14:23;;;;;;;3.37;2.00;;;10.10;99.90;;;;;;5019061;28;20214;-75
2023/04/01 04:16:48;;;;;;;6.00;2.20;;;10.00;99.90;;;;;;5019441;28;20753;-76
2023/04/01 04:19:14;;;;;;;3.93;2.10;;;10.10;99.90;;;;;;5023825;28;20673;-76
2023/04/01 04:21:40;;;;;;;2.20;1.87;;;10.10;99.90;;;;;;5013925;28;20197;-76
2023/04/01 04:24:06;;;;;;;3.90;2.30;;;10.10;99.90;;;;;;5016123;28;20227;-76
2023/04/01 04:26:31;;;;;;;3.37;2.23;;;10.10;99.90;;;;;;5018522;28;20714;-77
2023/04/01 04:28:57;;;;;;;4.80;2.50;;;10.10;99.90;;;;;;5018791;28;20328;-76
2023/04/01 04:31:24;;;;;;;5.70;1.97;;;10.00;99.90;;;;;;5018554;28;20231;-77
2023/04/01 04:33:51;;;;;;;3.63;1.77;;;10.10;99.90;;;;;;5019073;28;20192;-75
2023/04/01 04:36:16;;;;;;;2.23;2.03;;;10.00;99.90;;;;;;5016759;28;20280;-75
2023/04/01 04:38:42;;;;;;;3.90;2.20;;;10.00;99.90;;;;;;5018439;28;20283;-76
2023/04/01 04:41:11;;;;;;;3.57;2.47;;;10.00;99.90;;;;;;5018149;28;20205;-74
2023/04/01 04:43:37;;;;;;;3.50;2.07;;;10.00;99.90;;;;;;5018250;28;20211;-77
2023/04/01 04:46:07;;;;;;;4.53;2.43;;;10.00;99.90;;;;;;5018583;28;20227;-77
2023/04/01 04:48:33;;;;;;;8.97;2.33;;;10.00;99.90;;;;;;5020650;28;20293;-72
2023/04/01 04:50:58;;;;;;;4.53;1.97;;;10.00;99.90;;;;;;5018448;28;20708;-73
2023/04/01 04:53:25;;;;;;;2.83;2.07;;;10.00;99.90;;;;;;5018141;28;20201;-74
2023/04/01 04:55:50;;;;;;;6.07;2.40;;;10.00;99.90;;;;;;5017576;28;20198;-73
2023/04/01 04:58:16;;;;;;;4.13;2.17;;;10.00;99.90;;;;;;5018509;28;20200;-84
2023/04/01 05:00:42;;;;;;;4.23;3.03;;;9.90;99.90;;;;;;5015325;28;20603;-77
2023/04/01 05:03:09;;;;;;;4.00;2.53;;;9.90;99.90;;;;;;5018722;28;20201;-85
2023/04/01 05:05:35;;;;;;;3.33;2.27;;;9.90;99.90;;;;;;5018683;28;20231;-69
2023/04/01 05:08:00;;;;;;;8.30;2.77;;;9.90;99.90;;;;;;5017645;28;20288;-69
2023/04/01 05:10:26;;;;;;;5.23;2.30;;;10.00;99.90;;;;;;5017847;28;20690;-68
2023/04/01 05:12:51;;;;;;;2.93;2.17;;;10.10;99.90;;;;;;5016434;28;20537;-69
2023/04/01 05:15:17;;;;;;;3.47;2.60;;;10.10;99.90;;;;;;5017944;28;20372;-69
2023/04/01 05:17:42;;;;;;;3.97;2.23;;;10.10;99.90;;;;;;5017781;28;20199;-68
2023/04/01 05:20:08;;;;;;;3.47;2.20;;;10.10;99.90;;;;;;5017369;28;20269;-67
2023/04/01 05:22:34;;;;;;;5.77;2.83;;;10.20;99.90;;;;;;5017498;28;20861;-68
2023/04/01 05:24:59;;;;;;;3.13;2.63;;;10.30;99.90;;;;;;5017841;28;20560;-70
2023/04/01 05:27:25;;;;;;;6.53;3.23;;;10.30;99.90;;;;;;5016426;28;20211;-68
2023/04/01 05:29:50;;;;;;;4.53;2.90;;;10.40;99.90;;;;;;5012708;28;20201;-73
2023/04/01 05:32:16;;;;;;;3.97;2.50;;;10.40;99.90;;;;;;5017415;28;20620;-72
2023/04/01 05:34:41;;;;;;;4.97;2.90;;;10.40;99.90;;;;;;5017489;28;20305;-73
2023/04/01 05:37:07;;;;;;;3.57;2.80;;;10.30;99.90;;;;;;5017903;28;20209;-69
2023/04/01 05:39:37;;;;;;;6.87;2.83;;;10.40;99.90;;;;;;5017198;28;20208;-69
2023/04/01 05:42:03;;;;;;;5.93;2.93;;;10.50;99.90;;;;;;5021261;28;20212;-69
2023/04/01 05:44:28;;;;;;;6.37;3.37;;;10.60;99.90;;;;;;5011889;28;20267;-70
2023/04/01 05:46:54;;;;;;;4.97;3.07;;;10.60;99.90;;;;;;5016994;28;20692;-70
2023/04/01 05:49:19;;;;;;;3.90;2.87;;;10.60;99.90;;;;;;5021185;28;20536;-70
2023/04/01 05:51:45;;;;;;;4.43;2.37;;;10.60;99.90;;;;;;5015713;28;20725;-69
2023/04/01 05:54:10;;;;;;;5.67;2.50;;;10.50;99.90;;;;;;5012196;28;20310;-70
2023/04/01 05:56:36;;;;;;;4.90;3.27;;;10.60;99.90;;;;;;5017138;28;20197;-72
2023/04/01 05:59:01;;;;;;;8.07;2.63;;;10.60;99.90;;;;;;5012262;28;20315;-70
2023/04/01 06:01:27;;;;;;;2.87;2.27;;;10.60;99.90;;;;;;5016717;28;20206;-72
2023/04/01 06:03:52;;;;;;;4.73;2.40;;;10.70;99.90;;;;;;5016772;28;20207;-71
2023/04/01 06:06:26;;;;;;;3.90;2.17;;;10.70;99.90;;;;;;5016388;28;20223;-71
2023/04/01 06:08:52;;;;;;;5.80;2.80;;;10.70;99.90;;;;;;5012783;28;20205;-72
2023/04/01 06:11:51;;;;;;;5.47;2.87;;;10.70;99.90;;;;;;5016573;28;20399;-72
2023/04/01 06:14:37;;;;;;;3.07;2.10;;;10.60;99.90;;;;;;5014109;28;20278;-72
2023/04/01 06:17:30;;;;;;;3.30;2.53;;;10.70;99.90;;;;;;5013089;28;21041;-71
2023/04/01 06:20:20;;;;;;;6.23;2.70;;;10.70;99.90;;;;;;5012693;28;20210;-72
2023/04/01 06:23:11;;;;;;;5.30;2.37;;;10.70;99.90;;;;;;5012750;28;20205;-76
2023/04/01 06:25:50;;;;;;;4.40;2.37;;;10.90;99.90;;;;;;5020952;28;20207;-71
2023/04/01 06:28:40;;;;;;;5.50;2.60;;;10.90;99.90;;;;;;5021066;28;20204;-72
2023/04/01 06:31:19;;;;;;;2.80;2.20;;;10.90;99.90;;;;;;5013772;28;20295;-76
2023/04/01 06:34:03;;;;;;;5.40;2.53;;;10.90;99.90;;;;;;5015618;28;20279;-72
2023/04/01 06:36:39;;;;;;;4.57;2.90;;;10.90;99.90;;;;;;5015921;28;20240;-72
2023/04/01 06:39:36;;;;;;;5.50;2.17;;;10.80;99.90;;;;;;5011060;28;20200;-71
2023/04/01 06:42:38;;;;;;;4.07;2.00;;;10.70;99.90;;;;;;5014582;28;20277;-72
2023/04/01 06:45:17;;;;;;;8.80;2.60;;;10.80;99.90;;;;;;5014424;28;20220;-72
2023/04/01 06:47:52;;;;;;;6.20;2.73;;;10.90;99.90;;;;;;5014271;28;20216;-72
2023/04/01 06:50:37;;;;;;;8.23;2.57;;;10.90;99.90;;;;;;5014819;28;20197;-69
2023/04/01 06:53:33;;;;;;;8.57;2.63;;;10.90;99.90;;;;;;5014448;28;20223;-70
2023/04/01 06:56:07;;;;;;;4.47;2.07;;;11.00;99.90;;;;;;5014588;28;20287;-70
2023/04/01 06:59:01;;;;;;;4.43;1.93;;;10.90;99.90;;;;;;5013067;28;20300;-70
2023/04/01 07:01:39;;;;;;;3.40;2.37;;;11.00;99.90;;;;;;5011906;28;20212;-71
2023/04/01 07:04:30;;;;;;;5.43;1.97;;;11.10;99.90;;;;;;5014474;28;20779;-70
2023/04/01 07:07:10;;;;;;;4.10;2.20;;;11.10;99.90;;;;;;5013163;28;20220;-71
2023/04/01 07:09:39;;;;;;;4.07;2.20;;;11.10;99.90;;;;;;5012981;28;20263;-72
2023/04/01 07:12:35;;;;;;;6.33;1.97;;;11.10;99.90;;;;;;5014371;28;20191;-70
2023/04/01 07:15:18;;;;;;;5.60;2.50;;;11.10;99.90;;;;;;5013731;28;20695;-70
2023/04/01 07:17:46;;;;;;;5.00;2.43;;;11.20;99.90;;;;;;5014429;28;20215;-72
2023/04/01 07:20:19;;;;;;;4.87;2.27;;;11.20;99.90;;;;;;5015853;28;20205;-72
2023/04/01 07:22:48;;;;;;;5.77;2.67;;;11.10;99.90;;;;;;5018298;28;20629;-70
2023/04/01 07:25:18;;;;;;;6.07;2.17;;;11.00;99.90;;;;;;5018954;28;20209;-70
2023/04/01 07:27:45;;;;;;;5.07;2.30;;;11.00;99.90;;;;;;5016499;28;20312;-71
2023/04/01 07:30:19;;;;;;;5.20;2.20;;;11.10;99.90;;;;;;5018799;28;20217;-71
2023/04/01 07:33:03;;;;;;;4.03;2.47;;;11.00;99.90;;;;;;5016786;28;20616;-72
2023/04/01 07:35:56;;;;;;;6.00;2.57;;;11.10;99.90;;;;;;5017653;28;20191;-72
2023/04/01 07:38:40;;;;;;;2.80;1.57;;;11.30;99.90;;;;;;5018680;28;20199;-71
2023/04/01 07:41:41;;;;;;;6.27;2.37;;;11.40;99.90;;;;;;5019181;28;20193;-71
2023/04/01 07:44:15;;;;;;;4.07;1.97;;;11.50;99.90;;;;;;5019082;28;20210;-71
2023/04/01 07:47:01;;;;;;;4.07;1.80;;;11.50;99.90;;;;;;5016358;28;21700;-70
2023/04/01 07:49:40;;;;;;;5.03;2.67;;;11.60;99.90;;;;;;5018943;28;20210;-72
2023/04/01 07:52:17;;;;;;;4.63;2.23;;;11.50;99.90;;;;;;5018435;28;20224;-70
2023/04/01 07:54:48;;;;;;;7.07;2.73;;;11.30;99.90;;;;;;5022428;28;20210;-70
2023/04/01 07:57:30;;;;;;;3.70;1.80;;;11.30;99.90;;;;;;5019243;28;20231;-71
2023/04/01 08:00:01;;;;;;;2.97;2.30;;;11.30;99.90;;;;;;5016989;28;20238;-71
2023/04/01 08:03:07;;;;;;;6.37;2.67;;;11.10;99.90;;;;;;5018563;28;20211;-71
2023/04/01 08:05:55;;;;;;;17.63;14.70;;;11.30;99.90;;;;;;5017842;28;20206;-71
2023/04/01 08:08:55;;;;;;;2.30;2.10;;;11.30;99.90;;;;;;5018854;28;20209;-75
2023/04/01 08:11:43;;;;;;;4.60;2.60;;;11.50;99.90;;;;;;5014434;28;20236;-82
2023/04/01 08:14:24;;;;;;;3.93;2.40;;;11.50;99.90;;;;;;5018040;28;20205;-80
2023/04/01 08:17:23;;;;;;;5.63;2.63;;;11.60;99.90;;;;;;5016530;28;20208;-79
2023/04/01 08:20:15;;;;;;;3.87;3.03;;;11.60;99.90;;;;;;5018939;28;20207;-71
2023/04/01 08:22:44;;;;;;;2.07;1.97;;;11.40;99.90;;;;;;5017650;28;20593;-77
2023/04/01 08:25:26;;;;;;;2.60;2.40;;;11.50;99.90;;;;;;5019146;28;20240;-79
2023/04/01 08:28:30;;;;;;;1.87;1.73;;;11.60;99.90;;;;;;5018749;28;20230;-78
2023/04/01 08:31:07;;;;;;;2.83;2.60;;;11.60;99.90;;;;;;4969352;28;20218;-79
2023/04/01 08:33:33;;;;;;;3.70;2.30;;;11.50;99.90;;;;;;5010728;28;20210;-81
2023/04/01 08:36:16;;;;;;;2.27;1.87;;;11.40;99.90;;;;;;5017332;28;20668;-79
2023/04/01 08:39:05;;;;;;;1.90;1.80;;;11.30;99.90;;;;;;5017611;28;20210;-80
2023/04/01 08:41:50;;;;;;;2.37;2.17;;;11.00;99.90;;;;;;5013925;28;20213;-80
2023/04/01 08:44:46;;;;;;;1.93;1.77;;;10.90;99.90;;;;;;5016711;28;20208;-79
2023/04/01 08:47:36;;;;;;;2.77;2.47;;;10.70;99.90;;;;;;5016571;28;20231;-79
2023/04/01 08:50:30;;;;;;;2.70;2.50;;;10.80;99.90;;;;;;5014747;28;20251;-79
2023/04/01 08:53:24;;;;;;;2.50;2.30;;;10.60;99.90;;;;;;5017058;28;20555;-78
2023/04/01 08:56:15;;;;;;;2.40;2.20;;;10.60;99.90;;;;;;5016696;28;20805;-77
2023/04/01 08:59:10;;;;;;;3.13;2.83;;;10.70;99.90;;;;;;5017217;28;20230;-77
2023/04/01 09:01:56;;;;;;;3.43;3.10;;;10.70;99.90;;;;;;5016873;28;20206;-77
2023/04/01 09:04:39;;;;;;;4.77;4.27;;;10.60;99.90;;;;;;5015423;28;20200;-77
2023/04/01 09:07:38;;;;;;;3.93;3.43;;;10.80;99.90;;;;;;5016001;28;20696;-77
2023/04/01 09:10:41;;;;;;;5.33;4.80;;;10.70;99.90;;;;;;5015858;28;20195;-77
2023/04/01 09:13:35;;;;;;;5.83;4.87;;;10.80;99.90;;;;;;5014875;28;20227;-77
2023/04/01 09:16:23;;;;;;;5.33;4.83;;;10.70;99.90;;;;;;5015959;28;20208;-79
2023/04/01 09:19:11;;;;;;;6.73;5.37;;;10.60;99.90;;;;;;5015421;28;20557;-78
2023/04/01 09:21:59;;;;;;;8.10;6.37;;;10.40;99.90;;;;;;5016676;28;20216;-79
2023/04/01 09:24:49;;;;;;;8.43;5.57;;;10.60;99.90;;;;;;5014516;28;20757;-77
2023/04/01 09:27:22;;;;;;;6.70;6.03;;;10.90;99.90;;;;;;5015489;28;20774;-77
2023/04/01 09:30:09;;;;;;;7.00;6.30;;;11.10;99.90;;;;;;5014646;28;20202;-79
2023/04/01 09:32:56;;;;;;;9.03;7.80;;;11.10;99.90;;;;;;5016426;28;20189;-78
2023/04/01 09:35:23;;;;;;;8.00;7.20;;;11.00;99.90;;;;;;5012556;28;20210;-76
2023/04/01 09:38:17;;;;;;;11.00;8.07;;;11.20;99.90;;;;;;5016843;28;20202;-75
2023/04/01 09:41:14;;;;;;;9.43;8.43;;;11.10;99.90;;;;;;5014160;28;20241;-79
2023/04/01 09:43:49;;;;;;;12.83;9.33;;;10.90;99.90;;;;;;5014848;28;22647;-75
2023/04/01 09:46:31;;;;;;;8.80;7.90;;;10.70;99.90;;;;;;5016653;28;20290;-77
2023/04/01 09:49:27;;;;;;;9.33;8.53;;;10.50;99.90;;;;;;5017375;28;20273;-78
2023/04/01 09:52:08;;;;;;;9.43;8.53;;;10.40;99.90;;;;;;5023311;28;20317;-78
2023/04/01 09:54:47;;;;;;;10.47;9.07;;;10.50;99.90;;;;;;5013533;28;20233;-77
2023/04/01 09:57:52;;;;;;;11.90;8.13;;;10.40;99.90;;;;;;5016867;28;20218;-76
2023/04/01 10:00:40;;;;;;;9.60;8.57;;;10.40;99.90;;;;;;5013157;28;20207;-76
2023/04/01 10:03:43;;;;;;;9.63;8.73;;;10.20;99.90;;;;;;5014321;28;20612;-75
2023/04/01 10:06:35;;;;;;;8.80;7.90;;;10.30;99.90;;;;;;5013063;28;20621;-77
2023/04/01 10:09:22;;;;;;;9.97;8.97;;;10.40;99.90;;;;;;5012542;28;20208;-76
2023/04/01 10:11:59;;;;;;;10.43;9.23;;;10.80;99.90;;;;;;5014354;28;20204;-76
2023/04/01 10:14:45;;;;;;;10.23;9.23;;;10.80;99.90;;;;;;5016582;28;20196;-77
2023/04/01 10:17:32;;;;;;;11.07;9.00;;;10.70;99.90;;;;;;5011318;28;20261;-77
2023/04/01 10:20:36;;;;;;;10.07;9.07;;;10.40;99.90;;;;;;5011922;28;20219;-76
2023/04/01 10:23:33;;;;;;;11.53;10.03;;;10.50;99.90;;;;;;5013606;28;20675;-77
2023/04/01 10:26:19;;;;;;;9.90;9.00;;;10.40;99.90;;;;;;5012784;28;20726;-76
2023/04/01 10:29:22;;;;;;;9.90;8.90;;;10.30;99.90;;;;;;5013745;28;20707;-75
2023/04/01 10:32:12;;;;;;;10.83;9.60;;;10.40;99.90;;;;;;5014138;28;20701;-76
2023/04/01 10:35:18;;;;;;;9.47;8.60;;;10.40;99.90;;;;;;5014037;28;20204;-75
2023/04/01 10:38:12;;;;;;;9.60;8.70;;;10.30;99.90;;;;;;5015334;28;20211;-76
2023/04/01 10:40:51;;;;;;;9.43;8.50;;;10.20;99.90;;;;;;5013141;28;20199;-75
2023/04/01 10:43:46;;;;;;;10.07;9.07;;;10.40;99.90;;;;;;5016126;28;20211;-77
2023/04/01 10:46:33;;;;;;;8.83;7.93;;;10.60;99.90;;;;;;5013843;28;20734;-76
2023/04/01 10:49:35;;;;;;;8.20;7.40;;;10.60;99.90;;;;;;5012267;28;20982;-76
2023/04/01 10:52:25;;;;;;;8.40;7.60;;;10.50;99.90;;;;;;5013127;28;20672;-75
2023/04/01 10:55:18;;;;;;;7.73;7.03;;;10.70;99.90;;;;;;5013211;28;20683;-77
2023/04/01 10:57:55;;;;;;;7.47;6.77;;;11.00;99.90;;;;;;5011965;28;20258;-77
2023/04/01 11:00:53;;;;;;;7.63;7.03;;;10.80;99.90;;;;;;5016197;28;20290;-78
2023/04/01 11:03:38;;;;;;;8.23;7.50;;;10.70;99.90;;;;;;5015148;28;20204;-77
2023/04/01 11:06:30;;;;;;;8.30;7.50;;;10.70;99.90;;;;;;5016274;28;20222;-77
2023/04/01 11:09:26;;;;;;;7.57;6.87;;;10.50;99.90;;;;;;5014304;28;20619;-77
2023/04/01 11:12:09;;;;;;;8.07;7.37;;;10.50;99.90;;;;;;5014844;28;20201;-77
2023/04/01 11:15:04;;;;;;;8.70;7.80;;;10.60;99.90;;;;;;5014041;28;21059;-80
2023/04/01 11:18:01;;;;;;;8.10;7.40;;;10.30;99.90;;;;;;5013716;28;20621;-79
2023/04/01 11:21:09;;;;;;;6.93;6.17;;;10.20;99.90;;;;;;5013129;28;20202;-78
2023/04/01 11:24:10;;;;;;;6.03;5.53;;;10.00;99.90;;;;;;5014044;28;20200;-77
2023/04/01 11:26:52;;;;;;;7.87;7.07;;;10.00;99.90;;;;;;5014748;28;20270;-76
2023/04/01 11:29:33;;;;;;;7.73;7.03;;;10.20;99.90;;;;;;5015498;28;20211;-75
2023/04/01 11:32:05;;;;;;;7.83;7.13;;;10.40;99.90;;;;;;5012572;28;20290;-76
2023/04/01 11:34:58;;;;;;;7.63;6.90;;;10.50;99.90;;;;;;5015400;28;20197;-77
2023/04/01 11:37:34;;;;;;;7.50;6.67;;;10.70;99.90;;;;;;5014015;28;20208;-76
2023/04/01 11:40:25;;;;;;;7.47;6.87;;;10.60;99.90;;;;;;5012512;28;20236;-77
2023/04/01 11:43:14;;;;;;;8.13;7.40;;;10.70;99.90;;;;;;5011523;28;20537;-77
2023/04/01 11:45:51;;;;;;;7.30;6.70;;;10.50;99.90;;;;;;5014734;28;20247;-79
2023/04/01 11:49:05;;;;;;;8.13;7.43;;;10.40;99.90;;;;;;5016115;28;20507;-75
2023/04/01 11:52:01;;;;;;;8.30;7.60;;;10.30;99.90;;;;;;4973000;28;20211;-75
2023/04/01 11:54:54;;;;;;;8.87;8.07;;;10.20;99.90;;;;;;4969036;28;20197;-79
2023/04/01 11:57:57;;;;;;;8.80;8.00;;;10.20;99.90;;;;;;5009262;28;20230;-79
2023/04/01 12:00:40;;;;;;;8.27;7.57;;;10.30;99.90;;;;;;5012534;28;20195;-78
2023/04/01 12:03:32;;;;;;;9.13;8.33;;;9.90;99.90;;;;;;5011982;28;20199;-79
2023/04/01 12:06:30;;;;;;;9.43;8.57;;;9.60;99.90;;;;;;5013198;28;20672;-79
2023/04/01 12:09:08;;;;;;;11.40;10.43;;;9.30;99.90;;;;;;5015114;28;20242;-79
2023/04/01 12:11:44;;;;;;;11.07;9.47;;;9.50;99.90;;;;;;5024136;28;20230;-77
2023/04/01 12:14:50;;;;;;;10.07;9.20;;;9.40;99.90;;;;;;5019777;28;20695;-77
2023/04/01 12:17:46;;;;;;;10.70;9.70;;;9.40;99.90;;;;;;5016590;28;20312;-77
2023/04/01 12:20:36;;;;;;;10.93;9.93;;;9.40;99.90;;;;;;5017111;28;20202;-78
2023/04/01 12:23:42;;;;;;;10.73;9.73;;;9.70;99.90;;;;;;5016722;28;20600;-79
2023/04/01 12:26:27;;;;;;;9.20;8.40;;;9.70;99.90;;;;;;5015925;28;20195;-78
2023/04/01 12:29:41;;;;;;;10.60;9.53;;;9.60;99.90;;;;;;5019569;28;20199;-77
2023/04/01 12:32:40;;;;;;;9.50;8.50;;;9.30;99.90;;;;;;4995152;28;20211;-77
2023/04/01 12:35:18;;;;;;;10.43;9.47;;;9.30;99.90;;;;;;5015326;28;20270;-77
2023/04/01 12:38:14;;;;;;;10.87;9.90;;;9.30;99.90;;;;;;5018253;28;20199;-78
2023/04/01 12:40:51;;;;;;;10.57;9.57;;;9.50;99.90;;;;;;5020300;28;20207;-77
2023/04/01 12:43:34;;;;;;;10.97;10.00;;;9.30;99.90;;;;;;5015886;28;20201;-77
2023/04/01 12:46:11;;;;;;;10.17;9.23;;;9.40;99.90;;;;;;5013663;28;20224;-77
2023/04/01 12:49:22;;;;;;;8.77;8.07;;;9.50;99.90;;;;;;5016385;28;20196;-76
2023/04/01 12:52:13;;;;;;;9.43;8.53;;;9.10;99.90;;;;;;5013069;28;20310;-76
2023/04/01 12:55:12;;;;;;;10.83;9.87;;;9.20;99.90;;;;;;5014680;28;20238;-79
2023/04/01 12:57:55;;;;;;;8.37;7.67;;;9.20;99.90;;;;;;5018296;28;20214;-79
2023/04/01 13:00:56;;;;;;;9.77;8.93;;;9.10;99.90;;;;;;5018038;28;20208;-69
2023/04/01 13:03:44;;;;;;;10.17;9.27;;;9.00;99.90;;;;;;5016487;28;20214;-72
2023/04/01 13:06:19;;;;;;;10.37;9.37;;;9.10;99.90;;;;;;5017595;28;20226;-71
2023/04/01 13:09:02;;;;;;;11.40;10.30;;;8.90;99.90;;;;;;5018255;28;20307;-71
2023/04/01 13:11:49;;;;;;;11.70;10.57;;;8.90;99.90;;;;;;5017136;28;20231;-72
2023/04/01 13:14:42;;;;;;;11.13;10.03;;;8.90;99.90;;;;;;5016489;28;20289;-72
2023/04/01 13:17:21;;;;;;;11.57;10.37;;;8.90;99.90;;;;;;5014879;28;20203;-72
2023/04/01 13:20:00;;;;;;;12.43;10.97;;;8.80;99.90;;;;;;5016256;28;20207;-71
2023/04/01 13:22:48;;;;;;;12.30;11.20;;;8.70;99.90;;;;;;5017065;28;20242;-70
2023/04/01 13:25:51;;;;;;;13.47;12.17;;;8.80;99.90;;;;;;5016770;28;20286;-70
2023/04/01 13:28:21;;;;;;;13.20;11.97;;;8.80;99.90;;;;;;5014391;28;20277;-69
2023/04/01 13:30:55;;;;;;;17.43;11.33;;;8.90;99.90;;;;;;5015514;28;20294;-74
2023/04/01 13:33:28;;;;;;;11.60;10.43;;;9.00;99.90;;;;;;5015252;28;20210;-76
2023/04/01 13:36:15;;;;;;;10.33;9.43;;;9.00;99.90;;;;;;5016201;28;20286;-82
2023/04/01 13:39:10;;;;;;;10.37;8.87;;;9.00;99.90;;;;;;5016308;28;20203;-83
2023/04/01 13:41:54;;;;;;;10.40;9.33;;;8.90;99.90;;;;;;5016908;28;20314;-83
2023/04/01 13:44:34;;;;;;;10.17;9.27;;;8.50;99.90;;;;;;5016046;28;20233;-82